PST: 00:25 MST: 01:25 CST: 02:25 EST: 03:25 LDN: 08:25 UTC: 07:25
User Agent: CCBot/2.0 (https://commoncrawl.org/faq/)
IP Address: 18.204.2.146
Hostname: ec2-18-204-2-146.compute-1.amazonaws.com

METAR:
KBFI 250653Z 35004KT 10SM FEW100 SCT250 22/13 A3003 RMK AO2 SLP167 T02170133
KBFI 250553Z 31003KT 10SM FEW060 SCT250 22/13 A3002 RMK AO2 SLP166 T02170133 10278 20217 53004
KBFI 250453Z 31003KT 10SM CLR 23/14 A3001 RMK AO2 SLP162 T02280139
KBFI 250353Z 30004KT 10SM CLR 24/13 A3001 RMK AO2 SLP161 T02390133

TAF:
KBFI 250520Z 2506/2606 30003KT P6SM SCT250
FM 251900 31007KT P6SM SCT250

KBFI 242328Z 2500/2524 30007KT P6SM SCT250
FM 250700 33003KT P6SM SCT250
FM 251900 31005KT P6SM SCT250

KBFI 241736Z 2418/2518 27003KT P6SM SCT250
FM 242000 33005KT P6SM SCT250
FM 250200 33003KT P6SM SCT250

KBFI 241133Z 2412/2512 VRB03KT P6SM SCT250
FM 241300 20003KT P6SM SCT010
FM 241700 27003KT P6SM SCT250
FM 242000 30006KT P6SM SCT250

KBFI 240520Z 2406/2506 31006KT P6SM SKC
FM 240900 VRB03KT P6SM SKC
FM 241300 20003KT P6SM SCT010
FM 241700 27003KT P6SM SCT250
FM 242000 30006KT P6SM SCT250